Time;durP1;ratioP1;P1;durP2;ratioP2;P2;SDS_P1;SDS_P2;PMS_P1;PMS_P2;Temp;Humidity;BMP_temperature;BMP_pressure;BME280_temperature;BME280_humidity;BME280_pressure;Samples;Min_cycle;Max_cycle;Signal;HPM_P1;HPM_P2
2021/04/17 00:02:05;;;;;;;11.40;4.43;;;20.70;30.00;;;;;;5010027;28;20053;-45
2021/04/17 00:04:32;;;;;;;10.10;4.70;;;20.70;30.00;;;;;;5002790;28;20038;-45
2021/04/17 00:06:59;;;;;;;9.63;5.20;;;20.80;30.00;;;;;;5009922;28;20045;-44
2021/04/17 00:09:28;;;;;;;11.18;5.28;;;20.70;29.90;;;;;;5006801;28;20054;-45
2021/04/17 00:12:00;;;;;;;10.98;5.00;;;20.80;30.00;;;;;;4989793;28;20065;-44
2021/04/17 00:14:32;;;;;;;10.07;4.93;;;20.70;30.00;;;;;;4990092;28;20046;-42
2021/04/17 00:17:11;;;;;;;10.88;5.20;;;20.70;30.00;;;;;;4990166;28;20085;-45
2021/04/17 00:19:38;;;;;;;10.65;4.47;;;20.70;30.00;;;;;;5023273;28;20140;-46
2021/04/17 00:22:05;;;;;;;11.35;5.80;;;20.80;30.00;;;;;;5031821;28;20045;-46
2021/04/17 00:24:32;;;;;;;;;;;20.70;30.10;;;;;;5031521;28;20046;-47
2021/04/17 00:26:58;;;;;;;7.50;4.22;;;20.70;30.20;;;;;;5031509;28;19921;-45
2021/04/17 00:29:25;;;;;;;12.32;4.97;;;20.70;30.10;;;;;;5031773;28;20046;-43
2021/04/17 00:31:51;;;;;;;8.48;4.50;;;20.70;30.10;;;;;;5031470;28;20095;-46
2021/04/17 00:34:18;;;;;;;11.07;5.70;;;20.70;30.20;;;;;;5032150;28;20041;-47
2021/04/17 00:36:45;;;;;;;11.07;5.53;;;20.70;30.20;;;;;;5050475;28;20045;-46
2021/04/17 00:39:11;;;;;;;;;;;20.70;30.20;;;;;;5051240;28;20045;-45
2021/04/17 00:41:38;;;;;;;11.48;5.25;;;20.70;30.30;;;;;;5039425;28;19921;-44
2021/04/17 00:44:05;;;;;;;;;;;20.70;30.20;;;;;;5032012;28;20046;-46
2021/04/17 00:46:32;;;;;;;11.43;5.35;;;20.70;30.30;;;;;;5031513;28;19932;-46
2021/04/17 00:49:02;;;;;;;11.45;4.97;;;20.70;30.30;;;;;;5031356;28;20415;-46
2021/04/17 00:51:29;;;;;;;13.45;6.22;;;20.70;30.30;;;;;;5031608;28;20045;-46
2021/04/17 00:53:56;;;;;;;8.98;5.15;;;20.70;30.10;;;;;;5029751;28;20080;-49
2021/04/17 00:56:24;;;;;;;10.77;4.80;;;20.70;30.00;;;;;;5030192;28;20076;-47
2021/04/17 00:58:50;;;;;;;9.23;5.18;;;20.70;30.20;;;;;;5031647;28;20054;-43
2021/04/17 01:01:19;;;;;;;11.45;5.95;;;20.70;30.10;;;;;;5046770;28;20476;-44
2021/04/17 01:04:16;;;;;;;11.90;5.50;;;20.80;30.20;;;;;;5052063;28;20042;-45
2021/04/17 01:07:22;;;;;;;11.65;5.47;;;20.80;30.30;;;;;;5031633;28;20045;-45
2021/04/17 01:10:07;;;;;;;10.60;5.50;;;20.80;30.10;;;;;;4993731;28;20062;-48
2021/04/17 01:12:38;;;;;;;10.40;5.40;;;20.80;30.10;;;;;;4993338;28;20039;-45
2021/04/17 01:15:07;;;;;;;11.70;5.38;;;20.80;30.10;;;;;;4993316;28;20058;-46
2021/04/17 01:17:35;;;;;;;10.18;5.47;;;20.80;30.00;;;;;;4993183;28;20504;-44
2021/04/17 01:20:17;;;;;;;11.05;5.32;;;20.80;30.00;;;;;;4993403;28;20480;-45
2021/04/17 01:23:11;;;;;;;11.63;5.82;;;20.80;30.10;;;;;;4992659;28;20051;-44
2021/04/17 01:26:00;;;;;;;11.88;5.95;;;20.90;30.00;;;;;;4986536;28;20050;-44
2021/04/17 01:28:30;;;;;;;12.23;5.47;;;20.80;30.00;;;;;;4993059;28;20410;-45
2021/04/17 01:30:59;;;;;;;11.55;5.63;;;20.90;30.00;;;;;;4995205;28;20057;-46
2021/04/17 01:33:30;;;;;;;11.25;5.53;;;20.90;30.10;;;;;;5012269;28;20130;-43
2021/04/17 01:35:58;;;;;;;11.80;5.20;;;20.90;30.00;;;;;;5005453;28;20097;-45
2021/04/17 01:38:29;;;;;;;12.30;5.30;;;20.90;30.00;;;;;;4992714;28;20045;-44
2021/04/17 01:41:03;;;;;;;14.38;5.80;;;20.90;30.00;;;;;;4979513;28;20527;-47
2021/04/17 01:43:31;;;;;;;13.70;5.53;;;20.90;30.00;;;;;;4992979;28;20046;-45
2021/04/17 01:46:07;;;;;;;13.45;5.68;;;20.90;30.00;;;;;;5009059;28;20050;-45
2021/04/17 01:48:36;;;;;;;10.65;5.30;;;20.90;30.00;;;;;;5034280;28;20111;-45
2021/04/17 01:51:05;;;;;;;9.70;5.25;;;20.90;30.00;;;;;;5033661;28;20415;-43
2021/04/17 01:53:35;;;;;;;10.88;5.32;;;20.90;30.00;;;;;;5032610;28;20057;-46
2021/04/17 01:56:03;;;;;;;10.88;5.72;;;21.00;30.00;;;;;;5033791;28;20508;-45
2021/04/17 01:58:32;;;;;;;10.43;4.82;;;21.00;30.00;;;;;;5034147;28;20049;-45
2021/04/17 02:00:59;;;;;;;12.85;5.85;;;21.00;30.00;;;;;;5038427;28;20056;-46
2021/04/17 02:03:26;;;;;;;11.93;5.07;;;21.00;29.90;;;;;;5053815;28;20045;-45
2021/04/17 02:05:54;;;;;;;9.95;5.35;;;21.00;30.00;;;;;;5053174;28;20045;-45
2021/04/17 02:08:20;;;;;;;9.95;4.82;;;21.00;29.90;;;;;;5042073;28;20045;-47
2021/04/17 02:10:48;;;;;;;;;;;21.00;29.90;;;;;;5020274;28;20059;-44
2021/04/17 02:13:16;;;;;;;10.02;5.20;;;21.00;30.00;;;;;;5034034;28;19921;-47
2021/04/17 02:15:43;;;;;;;11.00;5.68;;;21.00;29.90;;;;;;5033295;28;20057;-48
2021/04/17 02:18:27;;;;;;;12.07;4.95;;;21.00;30.00;;;;;;5033890;28;20053;-46
2021/04/17 02:21:07;;;;;;;10.43;4.60;;;21.00;30.00;;;;;;5033065;28;20041;-44
2021/04/17 02:23:35;;;;;;;11.27;5.53;;;21.10;30.00;;;;;;5033689;28;20053;-44
2021/04/17 02:26:03;;;;;;;11.77;5.22;;;21.10;30.00;;;;;;5033244;28;20064;-45
2021/04/17 02:28:30;;;;;;;10.63;4.85;;;21.10;30.00;;;;;;5034161;28;20048;-47
2021/04/17 02:31:02;;;;;;;14.50;5.30;;;21.10;30.00;;;;;;5050784;28;20407;-45
2021/04/17 02:33:29;;;;;;;11.05;5.15;;;21.10;30.00;;;;;;5043122;28;20416;-45
2021/04/17 02:35:56;;;;;;;11.70;5.15;;;21.10;30.00;;;;;;5032917;28;20049;-44
2021/04/17 02:38:22;;;;;;;12.52;5.93;;;21.10;29.90;;;;;;5033373;28;20037;-46
2021/04/17 02:40:49;;;;;;;10.88;4.82;;;21.10;29.80;;;;;;5028723;28;20097;-46
2021/04/17 02:43:15;;;;;;;11.30;5.30;;;21.10;29.80;;;;;;5031000;28;20053;-44
2021/04/17 02:45:42;;;;;;;10.55;4.97;;;21.10;29.70;;;;;;5033225;28;20051;-46
2021/04/17 02:48:08;;;;;;;9.73;5.40;;;21.10;29.90;;;;;;5033177;28;20068;-46
2021/04/17 02:50:35;;;;;;;;;;;21.10;29.80;;;;;;5033201;28;20044;-45
2021/04/17 02:53:02;;;;;;;9.55;4.97;;;21.00;29.90;;;;;;5032877;28;20379;-43
2021/04/17 02:55:29;;;;;;;8.55;4.90;;;21.00;29.90;;;;;;5032931;28;20037;-45
2021/04/17 02:57:55;;;;;;;11.98;5.43;;;21.00;29.90;;;;;;5040857;28;20505;-46
2021/04/17 03:00:23;;;;;;;9.95;5.10;;;21.00;29.80;;;;;;5040866;28;20045;-45
2021/04/17 03:02:50;;;;;;;12.90;5.30;;;21.00;29.80;;;;;;5052772;28;20080;-44
2021/04/17 03:05:18;;;;;;;10.60;5.13;;;21.00;29.80;;;;;;5047676;28;20087;-47
2021/04/17 03:07:44;;;;;;;11.70;5.05;;;21.00;29.90;;;;;;5044694;28;20052;-46
2021/04/17 03:10:11;;;;;;;11.20;5.00;;;21.10;29.90;;;;;;5032646;28;20048;-46
2021/04/17 03:12:38;;;;;;;11.10;5.15;;;21.10;29.80;;;;;;5032682;28;20037;-44
2021/04/17 03:15:07;;;;;;;14.15;5.22;;;21.10;29.90;;;;;;5032657;28;20057;-46
2021/04/17 03:17:34;;;;;;;11.77;5.18;;;21.10;29.90;;;;;;5032632;28;20061;-46
2021/04/17 03:20:01;;;;;;;9.93;4.60;;;21.10;29.90;;;;;;5032140;28;20061;-47
2021/04/17 03:22:28;;;;;;;13.77;5.00;;;21.10;29.90;;;;;;5032367;28;20519;-46
2021/04/17 03:24:54;;;;;;;;;;;21.10;29.90;;;;;;5027804;28;20064;-47
2021/04/17 03:27:42;;;;;;;10.23;4.78;;;21.10;29.90;;;;;;5043389;28;19927;-46
2021/04/17 03:30:11;;;;;;;11.90;5.07;;;21.10;29.80;;;;;;5036471;28;20045;-48
2021/04/17 03:32:38;;;;;;;10.65;4.75;;;21.10;29.80;;;;;;5046052;28;20041;-46
2021/04/17 03:35:07;;;;;;;11.20;4.95;;;21.20;29.80;;;;;;5032455;28;20049;-46
2021/04/17 03:37:35;;;;;;;9.73;4.85;;;21.20;29.80;;;;;;5044652;28;20405;-45
2021/04/17 03:40:03;;;;;;;10.52;5.10;;;21.20;29.80;;;;;;5032439;28;20046;-46
2021/04/17 03:42:29;;;;;;;9.80;4.53;;;21.20;29.70;;;;;;5027823;28;20443;-46
2021/04/17 03:44:55;;;;;;;10.55;4.63;;;21.20;29.70;;;;;;5032068;28;20041;-45
2021/04/17 03:47:22;;;;;;;15.73;4.80;;;21.20;29.70;;;;;;5027439;28;20037;-45
2021/04/17 03:49:48;;;;;;;;;;;21.20;29.80;;;;;;5035458;28;20049;-49
2021/04/17 03:52:15;;;;;;;9.50;5.13;;;21.20;29.80;;;;;;5041267;28;19921;-45
2021/04/17 03:54:42;;;;;;;10.95;4.95;;;21.20;29.80;;;;;;5032576;28;20756;-47
2021/04/17 03:57:09;;;;;;;12.02;5.00;;;21.20;29.70;;;;;;5049340;28;20041;-46
2021/04/17 03:59:35;;;;;;;12.48;4.80;;;21.20;29.60;;;;;;5051246;28;20392;-47
2021/04/17 04:02:02;;;;;;;11.50;4.20;;;21.20;29.70;;;;;;5051213;28;20055;-47
2021/04/17 04:04:29;;;;;;;8.13;4.72;;;21.20;29.50;;;;;;5051904;28;20049;-43
2021/04/17 04:06:55;;;;;;;;;;;21.20;29.60;;;;;;5050383;28;20087;-45
2021/04/17 04:09:22;;;;;;;9.27;4.57;;;21.20;29.80;;;;;;5039478;28;19920;-44
2021/04/17 04:11:49;;;;;;;10.20;4.53;;;21.30;29.70;;;;;;5038036;28;20042;-46
2021/04/17 04:14:15;;;;;;;11.43;4.57;;;21.30;29.70;;;;;;5031870;28;20492;-43
2021/04/17 04:16:42;;;;;;;10.50;5.00;;;21.30;29.70;;;;;;5031243;28;20058;-47
2021/04/17 04:19:08;;;;;;;;;;;21.30;29.60;;;;;;5031948;28;20091;-44
2021/04/17 04:21:35;;;;;;;9.10;4.35;;;21.30;29.70;;;;;;5031742;28;19925;-47
2021/04/17 04:24:02;;;;;;;12.25;4.50;;;21.30;29.70;;;;;;5036123;28;20412;-45
2021/04/17 04:26:28;;;;;;;;;;;21.30;29.60;;;;;;5051787;28;20044;-46
2021/04/17 04:28:55;;;;;;;11.18;4.78;;;21.30;29.70;;;;;;5051276;28;20263;-46
2021/04/17 04:31:21;;;;;;;9.80;4.68;;;21.30;29.70;;;;;;5051209;28;20045;-49
2021/04/17 04:33:48;;;;;;;;;;;21.30;29.60;;;;;;5051952;28;20064;-43
2021/04/17 04:36:15;;;;;;;10.20;4.82;;;21.30;29.70;;;;;;5032502;28;20319;-47
2021/04/17 04:38:41;;;;;;;;;;;21.30;29.60;;;;;;5036015;28;20049;-49
2021/04/17 04:41:08;;;;;;;10.88;4.78;;;21.30;29.70;;;;;;5035323;28;19928;-45
2021/04/17 04:43:34;;;;;;;10.27;4.55;;;21.30;29.60;;;;;;5035736;28;20076;-48
2021/04/17 04:46:01;;;;;;;9.93;4.57;;;21.30;29.60;;;;;;5036031;28;20045;-45
2021/04/17 04:48:27;;;;;;;10.98;4.28;;;21.30;29.60;;;;;;5048038;28;20045;-48
2021/04/17 04:50:55;;;;;;;12.68;4.35;;;21.30;29.60;;;;;;5035384;28;20049;-47
2021/04/17 04:53:21;;;;;;;;;;;21.30;29.60;;;;;;5044253;28;20043;-47
2021/04/17 04:55:48;;;;;;;12.20;4.93;;;21.30;29.70;;;;;;5038225;28;19921;-47
2021/04/17 04:58:14;;;;;;;13.18;5.07;;;21.30;29.60;;;;;;5051780;28;20049;-47
2021/04/17 05:00:41;;;;;;;9.88;4.50;;;21.30;29.60;;;;;;5048398;28;20041;-46
2021/04/17 05:03:07;;;;;;;11.90;5.00;;;21.30;29.60;;;;;;5046233;28;20052;-48
2021/04/17 05:05:34;;;;;;;;;;;21.30;29.60;;;;;;5055171;28;20049;-48
2021/04/17 05:08:01;;;;;;;10.45;4.90;;;21.30;29.70;;;;;;5054947;28;19928;-46
2021/04/17 05:10:27;;;;;;;10.60;4.68;;;21.30;29.60;;;;;;5052332;28;20033;-48
2021/04/17 05:12:55;;;;;;;10.68;5.10;;;21.30;29.70;;;;;;5030504;28;20045;-46
2021/04/17 05:15:21;;;;;;;10.02;4.38;;;21.30;29.70;;;;;;5029277;28;20049;-46
2021/04/17 05:17:48;;;;;;;;;;;21.30;29.70;;;;;;5035615;28;20067;-44
2021/04/17 05:20:15;;;;;;;11.70;4.40;;;21.30;29.90;;;;;;5034623;28;20295;-46
2021/04/17 05:22:41;;;;;;;13.40;5.15;;;21.30;30.00;;;;;;5041352;28;20045;-45
2021/04/17 05:25:08;;;;;;;10.13;4.85;;;21.30;30.50;;;;;;5040334;28;20411;-44
2021/04/17 05:27:35;;;;;;;13.57;4.72;;;21.30;30.00;;;;;;5034720;28;20411;-45
2021/04/17 05:30:03;;;;;;;13.80;5.40;;;21.30;30.10;;;;;;5034219;28;20056;-45
2021/04/17 05:32:29;;;;;;;13.98;5.05;;;21.30;30.40;;;;;;5034458;28;20052;-46
2021/04/17 05:34:56;;;;;;;10.30;4.80;;;21.30;30.30;;;;;;5034321;28;20419;-43
2021/04/17 05:37:23;;;;;;;8.65;4.53;;;21.30;30.50;;;;;;5034292;28;20033;-46
2021/04/17 05:39:49;;;;;;;13.63;5.00;;;21.30;29.90;;;;;;5038839;28;20048;-45
2021/04/17 05:42:16;;;;;;;15.23;5.18;;;21.30;30.20;;;;;;5035722;28;20526;-44
2021/04/17 05:44:42;;;;;;;9.75;4.95;;;21.30;29.80;;;;;;5033776;28;20408;-46
2021/04/17 05:47:09;;;;;;;13.52;5.55;;;21.30;29.70;;;;;;5034089;28;20042;-46
2021/04/17 05:49:36;;;;;;;12.82;5.40;;;21.20;30.40;;;;;;5033803;28;20061;-45
2021/04/17 05:52:03;;;;;;;10.82;4.72;;;21.20;30.80;;;;;;5039702;28;20049;-46
2021/04/17 05:54:29;;;;;;;12.00;5.03;;;21.20;31.40;;;;;;5033959;28;20448;-42
2021/04/17 05:56:56;;;;;;;8.98;4.32;;;21.30;31.50;;;;;;5033678;28;20124;-49
2021/04/17 05:59:23;;;;;;;9.43;4.82;;;21.30;31.30;;;;;;5033518;28;20049;-44
2021/04/17 06:01:49;;;;;;;10.48;4.80;;;21.40;31.60;;;;;;5050273;28;20047;-45
2021/04/17 06:04:16;;;;;;;;;;;21.40;31.70;;;;;;5034442;28;20409;-43
2021/04/17 06:06:43;;;;;;;13.65;4.55;;;21.40;31.70;;;;;;5043740;28;20028;-45
2021/04/17 06:09:09;;;;;;;;;;;21.40;31.70;;;;;;5034117;28;20514;-45
2021/04/17 06:11:36;;;;;;;9.60;5.15;;;21.40;31.80;;;;;;5033768;28;19928;-45
2021/04/17 06:14:03;;;;;;;12.95;5.18;;;21.40;32.10;;;;;;5033167;28;20042;-46
2021/04/17 06:16:29;;;;;;;9.38;4.93;;;21.40;32.10;;;;;;5033415;28;20058;-44
2021/04/17 06:19:05;;;;;;;10.70;4.40;;;21.30;31.80;;;;;;5043341;28;20106;-48
2021/04/17 06:21:34;;;;;;;9.07;4.45;;;21.30;32.10;;;;;;5049471;28;20041;-47
2021/04/17 06:24:00;;;;;;;10.10;4.25;;;21.30;32.00;;;;;;5037218;28;20519;-46
2021/04/17 06:26:27;;;;;;;9.18;4.28;;;21.30;32.60;;;;;;5039176;28;20431;-43
2021/04/17 06:28:53;;;;;;;;;;;21.30;32.60;;;;;;5033558;28;20046;-45
2021/04/17 06:31:21;;;;;;;9.40;3.72;;;21.20;32.50;;;;;;5033397;28;19951;-45
2021/04/17 06:33:48;;;;;;;11.68;4.30;;;21.20;32.10;;;;;;5043435;28;20073;-44
2021/04/17 06:36:15;;;;;;;10.88;4.38;;;21.20;32.10;;;;;;5033728;28;20060;-44
2021/04/17 06:38:41;;;;;;;11.35;4.20;;;21.20;31.50;;;;;;5033290;28;20073;-45
2021/04/17 06:41:08;;;;;;;9.63;4.55;;;21.10;31.90;;;;;;5032798;28;20045;-45
2021/04/17 06:43:37;;;;;;;11.50;4.85;;;21.10;30.40;;;;;;5026752;28;20514;-48
2021/04/17 06:46:04;;;;;;;12.48;4.43;;;21.00;29.90;;;;;;5032682;28;20500;-46
2021/04/17 06:48:32;;;;;;;11.60;4.38;;;20.90;30.00;;;;;;5031249;28;20037;-47
2021/04/17 06:51:03;;;;;;;14.40;4.50;;;20.70;30.10;;;;;;5026794;28;20389;-46
2021/04/17 06:53:33;;;;;;;12.43;4.07;;;20.70;30.80;;;;;;5032659;28;20518;-45
2021/04/17 06:56:00;;;;;;;11.88;4.65;;;20.70;31.10;;;;;;5031856;28;20046;-46
2021/04/17 06:58:30;;;;;;;12.88;4.68;;;20.60;30.40;;;;;;5030943;28;20518;-46
2021/04/17 07:00:58;;;;;;;11.25;4.55;;;20.50;29.90;;;;;;5036123;28;20091;-46
2021/04/17 07:03:25;;;;;;;11.23;4.40;;;20.40;30.00;;;;;;5036586;28;20127;-46
2021/04/17 07:05:52;;;;;;;;;;;20.30;29.80;;;;;;5033012;28;20045;-47
2021/04/17 07:08:18;;;;;;;11.05;4.22;;;20.20;30.50;;;;;;5024572;28;19925;-46
2021/04/17 07:10:45;;;;;;;10.77;4.18;;;20.30;30.00;;;;;;5031006;28;20041;-46
2021/04/17 07:13:16;;;;;;;9.40;3.92;;;20.10;29.90;;;;;;5022016;28;20420;-48
2021/04/17 07:15:45;;;;;;;10.18;3.97;;;20.00;30.90;;;;;;5029948;28;20048;-46
2021/04/17 07:18:26;;;;;;;11.15;4.25;;;20.10;30.40;;;;;;5040790;28;20080;-47
2021/04/17 07:20:54;;;;;;;10.23;4.47;;;20.00;31.30;;;;;;5030601;28;20045;-46
2021/04/17 07:23:37;;;;;;;10.40;3.80;;;20.00;30.40;;;;;;5032239;28;20077;-47
2021/04/17 07:26:17;;;;;;;8.88;4.18;;;20.10;31.30;;;;;;5031670;28;20041;-46
2021/04/17 07:29:13;;;;;;;11.57;4.40;;;20.00;30.10;;;;;;5031406;28;20057;-47
2021/04/17 07:31:55;;;;;;;11.52;4.20;;;20.00;30.90;;;;;;5019594;28;20037;-49
2021/04/17 07:34:24;;;;;;;11.13;4.40;;;20.00;30.20;;;;;;5024555;28;20049;-47
2021/04/17 07:36:57;;;;;;;14.95;3.80;;;20.00;31.70;;;;;;5031635;28;20412;-45
2021/04/17 07:39:42;;;;;;;11.77;3.45;;;20.10;32.90;;;;;;5031247;28;20133;-49
2021/04/17 07:42:15;;;;;;;7.53;3.85;;;20.10;32.30;;;;;;5030016;28;20068;-45
2021/04/17 07:44:44;;;;;;;9.10;3.92;;;20.20;33.70;;;;;;5030213;28;20045;-46
2021/04/17 07:47:33;;;;;;;10.18;4.10;;;20.30;33.20;;;;;;5032400;28;20068;-46
2021/04/17 07:50:08;;;;;;;14.65;3.88;;;20.30;32.90;;;;;;5022996;28;20056;-45
2021/04/17 07:52:35;;;;;;;22.52;4.18;;;20.30;33.00;;;;;;5031713;28;20091;-47
2021/04/17 07:55:06;;;;;;;9.63;4.40;;;20.40;32.90;;;;;;5031100;28;20089;-47
2021/04/17 07:57:35;;;;;;;9.95;3.80;;;20.50;33.20;;;;;;5031197;28;20041;-46
2021/04/17 08:00:03;;;;;;;9.13;3.75;;;20.50;33.80;;;;;;5031868;28;20045;-46
2021/04/17 08:02:37;;;;;;;12.57;3.60;;;20.50;32.60;;;;;;5036668;28;20463;-47
2021/04/17 08:05:05;;;;;;;8.77;3.83;;;20.50;33.20;;;;;;5031454;28;20073;-49
2021/04/17 08:07:35;;;;;;;7.78;3.38;;;20.50;31.00;;;;;;5031443;28;20030;-49
2021/04/17 08:10:03;;;;;;;10.20;3.55;;;20.40;31.10;;;;;;5031213;28;20048;-47
2021/04/17 08:12:34;;;;;;;10.15;3.40;;;20.40;31.50;;;;;;5030798;28;20049;-47
2021/04/17 08:15:02;;;;;;;8.13;3.42;;;20.30;30.50;;;;;;5033630;28;20041;-46
2021/04/17 08:17:33;;;;;;;9.48;3.78;;;20.30;31.90;;;;;;5039412;28;20046;-47
2021/04/17 08:20:00;;;;;;;7.57;3.28;;;20.30;30.70;;;;;;5031557;28;20092;-48
2021/04/17 08:22:28;;;;;;;8.23;3.10;;;20.20;31.50;;;;;;5031601;28;20050;-45
2021/04/17 08:24:55;;;;;;;6.78;3.42;;;20.30;32.40;;;;;;5031396;28;20458;-46
2021/04/17 08:27:22;;;;;;;8.07;3.63;;;20.20;32.20;;;;;;5017689;28;20500;-48
2021/04/17 08:29:54;;;;;;;10.80;3.90;;;20.20;32.40;;;;;;5031867;28;20056;-45
2021/04/17 08:32:30;;;;;;;8.85;3.70;;;20.30;32.40;;;;;;5031342;28;20053;-42
2021/04/17 08:35:08;;;;;;;10.45;4.25;;;20.40;32.00;;;;;;5031396;28;20065;-46
2021/04/17 08:37:55;;;;;;;8.32;3.28;;;20.40;32.70;;;;;;5030358;28;20041;-48
2021/04/17 08:40:37;;;;;;;11.25;3.70;;;20.30;31.90;;;;;;5031268;28;20445;-46
2021/04/17 08:43:25;;;;;;;8.43;3.75;;;20.20;31.60;;;;;;5031262;28;20103;-44
2021/04/17 08:46:14;;;;;;;10.57;3.88;;;20.20;32.40;;;;;;5039249;28;20053;-43
2021/04/17 08:48:56;;;;;;;12.27;3.90;;;20.20;30.80;;;;;;5031248;28;20103;-45
2021/04/17 08:51:22;;;;;;;7.97;3.50;;;20.00;33.00;;;;;;5028839;28;20107;-45
2021/04/17 08:53:49;;;;;;;;;;;20.00;31.30;;;;;;5030882;28;20049;-45
2021/04/17 08:56:16;;;;;;;9.00;3.45;;;20.00;31.90;;;;;;5031303;28;19928;-45
2021/04/17 08:59:09;;;;;;;9.23;3.63;;;20.10;31.30;;;;;;5030911;28;20045;-45
2021/04/17 09:01:43;;;;;;;7.90;3.90;;;20.10;30.90;;;;;;5041836;28;20041;-45
2021/04/17 09:04:11;;;;;;;8.15;3.80;;;20.00;30.80;;;;;;5018179;28;20103;-45
2021/04/17 09:06:40;;;;;;;7.95;3.45;;;19.90;29.90;;;;;;5030646;28;20079;-44
2021/04/17 09:09:19;;;;;;;9.95;3.75;;;19.80;32.20;;;;;;5030706;28;20046;-46
2021/04/17 09:11:50;;;;;;;9.35;3.53;;;20.00;32.40;;;;;;5031400;28;20057;-42
2021/04/17 09:14:26;;;;;;;8.52;3.42;;;20.00;31.00;;;;;;5041954;28;20052;-43
2021/04/17 09:16:57;;;;;;;7.28;3.35;;;19.90;31.70;;;;;;5037589;28;20061;-43
2021/04/17 09:19:45;;;;;;;21.00;4.45;;;19.90;32.30;;;;;;5030969;28;20393;-44
2021/04/17 09:22:24;;;;;;;11.82;3.65;;;20.00;32.00;;;;;;5028412;28;20114;-44
2021/04/17 09:24:51;;;;;;;8.85;3.70;;;20.00;31.30;;;;;;5034593;28;20053;-44
2021/04/17 09:27:25;;;;;;;12.50;3.88;;;19.90;30.50;;;;;;5033995;28;20049;-45
2021/04/17 09:30:09;;;;;;;10.77;3.67;;;19.90;30.60;;;;;;5034875;28;20046;-44
2021/04/17 09:32:47;;;;;;;8.00;3.42;;;19.70;29.80;;;;;;5034441;28;20168;-41
2021/04/17 09:35:21;;;;;;;;;;;19.90;32.90;;;;;;5034776;28;20107;-43
2021/04/17 09:37:55;;;;;;;10.88;3.33;;;19.90;31.20;;;;;;5034267;28;19926;-45
2021/04/17 09:40:30;;;;;;;10.38;3.10;;;19.90;32.10;;;;;;5034657;28;20124;-42
2021/04/17 09:42:57;;;;;;;8.02;3.22;;;20.00;31.90;;;;;;5041108;28;20044;-45
2021/04/17 09:45:40;;;;;;;9.88;3.42;;;20.00;31.60;;;;;;5044149;28;20087;-44
2021/04/17 09:48:09;;;;;;;7.35;3.10;;;19.80;30.50;;;;;;5033288;28;20044;-44
2021/04/17 09:50:38;;;;;;;6.82;3.40;;;20.00;32.20;;;;;;5034057;28;20050;-45
2021/04/17 09:53:21;;;;;;;11.73;3.45;;;20.10;32.70;;;;;;5034240;28;20049;-45
2021/04/17 09:56:03;;;;;;;10.63;3.53;;;20.20;30.70;;;;;;5034198;28;20037;-44
2021/04/17 09:58:35;;;;;;;11.25;3.30;;;19.90;30.10;;;;;;5019848;28;20500;-44
2021/04/17 10:01:10;;;;;;;7.40;3.28;;;19.90;30.50;;;;;;5038244;28;20415;-45
2021/04/17 10:04:02;;;;;;;9.13;3.78;;;20.00;31.30;;;;;;5047419;28;20049;-41
2021/04/17 10:06:37;;;;;;;8.88;3.38;;;19.90;29.40;;;;;;5033682;28;20045;-44
2021/04/17 10:09:06;;;;;;;8.90;3.30;;;19.70;29.20;;;;;;5033719;28;20057;-44
2021/04/17 10:11:35;;;;;;;7.65;3.47;;;19.80;33.00;;;;;;5042967;28;20049;-45
2021/04/17 10:14:02;;;;;;;11.10;3.50;;;19.80;29.10;;;;;;5017771;28;20125;-42
2021/04/17 10:16:32;;;;;;;7.53;3.25;;;19.80;31.50;;;;;;5023626;28;20400;-46
2021/04/17 10:19:00;;;;;;;9.65;3.42;;;19.70;31.70;;;;;;5032903;28;20439;-45
2021/04/17 10:21:31;;;;;;;7.38;3.40;;;19.80;32.00;;;;;;5033775;28;20065;-44
2021/04/17 10:24:17;;;;;;;6.10;3.17;;;19.90;32.30;;;;;;5033435;28;20227;-46
2021/04/17 10:27:03;;;;;;;9.80;3.40;;;20.00;31.30;;;;;;5033667;28;20045;-45
2021/04/17 10:29:42;;;;;;;10.02;3.30;;;20.10;30.80;;;;;;5033456;28;20040;-47
2021/04/17 10:32:24;;;;;;;7.43;3.50;;;19.90;30.50;;;;;;5033604;28;20057;-43
2021/04/17 10:35:05;;;;;;;9.25;3.08;;;19.80;30.20;;;;;;5020764;28;20044;-43
2021/04/17 10:37:44;;;;;;;7.45;3.22;;;20.00;32.60;;;;;;5031223;28;20041;-41
2021/04/17 10:40:15;;;;;;;11.60;3.17;;;20.10;31.60;;;;;;5043840;28;20033;-42
2021/04/17 10:42:54;;;;;;;9.30;3.55;;;20.00;29.90;;;;;;5032201;28;20116;-44
2021/04/17 10:45:41;;;;;;;8.13;3.50;;;19.90;29.90;;;;;;5033142;28;20041;-43
2021/04/17 10:48:14;;;;;;;8.25;3.25;;;19.70;30.10;;;;;;5032038;28;20049;-43
2021/04/17 10:51:09;;;;;;;11.40;3.70;;;19.70;30.30;;;;;;5033191;28;20095;-46
2021/04/17 10:53:42;;;;;;;7.33;3.30;;;19.60;30.70;;;;;;5021113;28;20040;-44
2021/04/17 10:56:15;;;;;;;6.25;3.20;;;19.90;31.90;;;;;;5032630;28;20314;-43
2021/04/17 10:58:43;;;;;;;8.02;3.30;;;20.00;30.80;;;;;;5019320;28;20045;-44
2021/04/17 11:01:13;;;;;;;8.73;3.55;;;20.00;30.50;;;;;;5037501;28;20049;-45
2021/04/17 11:03:44;;;;;;;10.82;3.47;;;20.00;30.20;;;;;;5048523;28;20086;-43
2021/04/17 11:06:20;;;;;;;7.35;3.85;;;19.70;30.40;;;;;;5032726;28;20140;-43
2021/04/17 11:08:49;;;;;;;7.78;3.72;;;19.90;30.10;;;;;;5039211;28;20088;-43
2021/04/17 11:11:21;;;;;;;7.30;3.70;;;19.60;29.60;;;;;;5042194;28;20071;-45
2021/04/17 11:14:03;;;;;;;8.05;3.60;;;19.50;31.70;;;;;;5032183;28;20057;-45
2021/04/17 11:16:38;;;;;;;10.07;4.03;;;19.60;30.00;;;;;;5032206;28;20583;-45
2021/04/17 11:19:29;;;;;;;7.93;3.40;;;19.70;30.40;;;;;;5031686;28;20041;-43
2021/04/17 11:22:21;;;;;;;12.05;3.80;;;19.80;31.20;;;;;;5032134;28;20107;-47
2021/04/17 11:24:57;;;;;;;7.32;3.00;;;19.80;31.00;;;;;;5021056;28;20045;-43
2021/04/17 11:27:25;;;;;;;10.20;4.07;;;19.90;31.60;;;;;;5031194;28;20045;-45
2021/04/17 11:29:51;;;;;;;13.32;4.00;;;19.90;30.10;;;;;;5032213;28;20103;-45
2021/04/17 11:32:18;;;;;;;9.38;3.80;;;19.90;32.20;;;;;;5030094;28;20045;-48
2021/04/17 11:34:47;;;;;;;10.68;3.78;;;20.00;32.50;;;;;;5032385;28;20053;-44
2021/04/17 11:37:15;;;;;;;10.57;3.80;;;20.00;31.30;;;;;;5038110;28;20045;-44
2021/04/17 11:39:42;;;;;;;8.00;3.60;;;19.70;32.30;;;;;;5043244;28;20033;-46
2021/04/17 11:42:16;;;;;;;11.88;4.05;;;19.90;33.40;;;;;;5031765;28;20068;-46
2021/04/17 11:44:44;;;;;;;10.68;4.53;;;20.10;32.80;;;;;;5030561;28;20037;-46
2021/04/17 11:47:10;;;;;;;10.02;3.92;;;20.10;31.60;;;;;;5030646;28;20049;-43
2021/04/17 11:49:37;;;;;;;9.82;3.67;;;20.10;32.60;;;;;;4327302;28;9999911;-45
2021/04/17 11:52:04;;;;;;;;;;;20.10;31.30;;;;;;5030601;28;20080;-44
2021/04/17 11:54:31;;;;;;;9.52;3.72;;;20.10;32.90;;;;;;5029786;28;19975;-44
2021/04/17 11:56:57;;;;;;;10.35;3.60;;;20.30;33.00;;;;;;5029614;28;20044;-45
2021/04/17 11:59:24;;;;;;;;;;;20.40;33.00;;;;;;5030253;28;20033;-46
2021/04/17 12:01:50;;;;;;;11.23;4.03;;;20.40;33.00;;;;;;5038733;28;19921;-44
2021/04/17 12:04:17;;;;;;;8.15;3.53;;;20.50;32.60;;;;;;5042056;28;20045;-45
2021/04/17 12:06:49;;;;;;;13.65;3.80;;;20.40;31.90;;;;;;5040738;28;20492;-45
2021/04/17 12:09:17;;;;;;;9.68;3.97;;;20.30;31.10;;;;;;5031868;28;20056;-45
2021/04/17 12:11:47;;;;;;;16.35;4.13;;;20.20;31.00;;;;;;5029508;28;20053;-46
2021/04/17 12:14:14;;;;;;;8.90;3.40;;;20.00;30.50;;;;;;5027465;28;20075;-45
2021/04/17 12:16:40;;;;;;;7.97;2.90;;;19.90;32.30;;;;;;5028874;28;20049;-45
2021/04/17 12:19:07;;;;;;;14.90;4.10;;;20.00;32.50;;;;;;5028723;28;20048;-42
2021/04/17 12:21:34;;;;;;;10.70;4.60;;;20.00;31.70;;;;;;5029890;28;20045;-42
2021/04/17 12:24:01;;;;;;;;;;;19.90;32.00;;;;;;5030060;28;20045;-44
2021/04/17 12:26:28;;;;;;;10.90;4.40;;;19.90;30.50;;;;;;5024561;28;19964;-42
2021/04/17 12:28:54;;;;;;;12.13;3.70;;;19.80;30.80;;;;;;5022879;28;20049;-43
2021/04/17 12:31:22;;;;;;;9.00;3.78;;;19.70;32.60;;;;;;5029146;28;20045;-43
2021/04/17 12:33:49;;;;;;;9.20;4.53;;;19.90;32.00;;;;;;5032221;28;20419;-42
2021/04/17 12:36:16;;;;;;;13.95;4.07;;;19.80;32.60;;;;;;5038957;28;20103;-43
2021/04/17 12:38:42;;;;;;;10.10;3.88;;;19.90;32.60;;;;;;5029437;28;20091;-42
2021/04/17 12:41:09;;;;;;;10.73;4.00;;;20.00;33.40;;;;;;5029546;28;20500;-43
2021/04/17 12:43:37;;;;;;;14.20;3.80;;;20.10;34.00;;;;;;5024550;28;20072;-42
2021/04/17 12:46:04;;;;;;;10.13;3.85;;;20.20;32.90;;;;;;5028958;28;20140;-47
2021/04/17 12:48:31;;;;;;;;;;;20.10;32.90;;;;;;5028481;28;20404;-46
2021/04/17 12:50:58;;;;;;;8.75;3.60;;;20.00;31.30;;;;;;5028301;28;20364;-45
2021/04/17 12:53:26;;;;;;;9.68;4.00;;;19.70;31.90;;;;;;5029512;28;20065;-46
2021/04/17 12:55:53;;;;;;;13.25;4.65;;;19.80;32.80;;;;;;5024675;28;20128;-43
2021/04/17 12:58:20;;;;;;;13.35;4.80;;;19.90;33.20;;;;;;5027952;28;20052;-45
2021/04/17 13:00:47;;;;;;;13.10;4.10;;;19.90;31.40;;;;;;5033048;28;20123;-45
2021/04/17 13:03:14;;;;;;;10.35;3.88;;;19.90;33.70;;;;;;5044961;28;20045;-45
2021/04/17 13:05:41;;;;;;;;;;;20.00;34.10;;;;;;5040815;28;20045;-46